Time;durP1;ratioP1;P1;durP2;ratioP2;P2;SDS_P1;SDS_P2;PMS_P1;PMS_P2;Temp;Humidity;BMP_temperature;BMP_pressure;BME280_temperature;BME280_humidity;BME280_pressure;Samples;Min_cycle;Max_cycle;Signal;HPM_P1;HPM_P2
2023/05/07 00:01:46;;;;;;;9.40;7.77;;;14.30;99.90;16.60;96853.00;;;;5084066;28;20191;-67
2023/05/07 00:04:37;;;;;;;10.37;7.20;;;14.30;99.90;16.40;96863.00;;;;5085473;28;20203;-68
2023/05/07 00:07:26;;;;;;;11.03;7.93;;;14.30;99.90;16.10;96842.00;;;;5084550;28;20622;-67
2023/05/07 00:10:15;;;;;;;7.90;7.10;;;14.20;99.90;15.50;96837.00;;;;5087496;28;20208;-69
2023/05/07 00:13:03;;;;;;;9.60;6.27;;;14.10;99.90;15.20;96844.00;;;;5098834;28;20202;-71
2023/05/07 00:15:52;;;;;;;10.93;6.87;;;14.00;99.90;15.20;96832.00;;;;5101574;28;20203;-65
2023/05/07 00:18:42;;;;;;;7.00;5.50;;;13.80;99.90;15.00;96836.00;;;;5094441;28;20203;-64
2023/05/07 00:21:30;;;;;;;7.33;5.97;;;13.70;99.90;15.10;96838.00;;;;5087788;28;20198;-68
2023/05/07 00:24:19;;;;;;;7.67;6.40;;;13.60;99.90;15.50;96846.00;;;;5087234;28;20206;-66
2023/05/07 00:27:08;;;;;;;6.97;6.00;;;13.60;99.90;15.80;96854.00;;;;5088792;28;20234;-66
2023/05/07 00:29:56;;;;;;;6.87;5.43;;;13.60;99.90;15.90;96844.00;;;;5090718;28;20705;-66
2023/05/07 00:32:45;;;;;;;8.70;5.13;;;13.60;99.90;15.90;96841.00;;;;5093902;28;20610;-66
2023/05/07 00:35:35;;;;;;;4.97;4.43;;;13.70;99.90;15.60;96840.00;;;;5087662;28;20665;-66
2023/05/07 00:38:24;;;;;;;5.37;3.30;;;13.60;99.90;15.60;96840.00;;;;5098123;28;20199;-66
2023/05/07 00:41:13;;;;;;;5.03;3.80;;;13.60;99.90;15.80;96841.00;;;;5084142;28;20245;-66
2023/05/07 00:44:02;;;;;;;3.87;3.00;;;13.60;99.90;15.70;96835.00;;;;5089800;28;20195;-66
2023/05/07 00:46:50;;;;;;;5.43;3.33;;;13.60;99.90;15.80;96841.00;;;;5091198;28;20227;-66
2023/05/07 00:49:42;;;;;;;5.20;3.00;;;13.60;99.90;15.70;96846.00;;;;5082868;28;20204;-66
2023/05/07 00:52:32;;;;;;;2.90;2.67;;;13.50;99.90;15.50;96851.00;;;;5094298;28;20203;-66
2023/05/07 00:55:22;;;;;;;4.23;3.07;;;13.50;99.90;15.50;96851.00;;;;5097169;28;20249;-66
2023/05/07 00:58:11;;;;;;;4.60;2.47;;;13.40;99.90;15.40;96846.00;;;;5095354;28;20290;-66
2023/05/07 01:01:00;;;;;;;2.97;2.10;;;13.40;99.90;15.30;96849.00;;;;5091506;28;20210;-66
2023/05/07 01:03:48;;;;;;;4.47;2.27;;;13.30;99.90;15.20;96858.00;;;;5096823;28;20203;-66
2023/05/07 01:06:37;;;;;;;4.80;2.00;;;13.30;99.90;15.10;96851.00;;;;5095205;28;20268;-66
2023/05/07 01:09:28;;;;;;;4.40;1.80;;;13.20;99.90;14.90;96857.00;;;;5091898;28;20230;-67
2023/05/07 01:12:18;;;;;;;2.43;2.10;;;13.10;99.90;15.00;96857.00;;;;5090881;28;20203;-66
2023/05/07 01:15:09;;;;;;;4.70;1.70;;;13.00;99.90;15.10;96849.00;;;;5091571;28;20195;-66
2023/05/07 01:17:58;;;;;;;3.30;2.10;;;13.00;99.90;15.00;96846.00;;;;5089133;28;20721;-66
2023/05/07 01:20:47;;;;;;;2.30;2.10;;;12.90;99.90;14.60;96849.00;;;;5086624;28;20191;-65
2023/05/07 01:23:37;;;;;;;2.47;1.90;;;12.90;99.90;14.80;96844.00;;;;5083631;28;20250;-66
2023/05/07 01:26:26;;;;;;;3.57;1.87;;;12.80;99.90;14.70;96836.00;;;;5089585;28;20215;-67
2023/05/07 01:29:15;;;;;;;2.33;2.13;;;12.70;99.90;14.60;96841.00;;;;5089967;28;20676;-67
2023/05/07 01:32:04;;;;;;;5.83;2.07;;;12.70;99.90;14.40;96848.00;;;;5083058;28;20202;-66
2023/05/07 01:34:55;;;;;;;5.30;2.50;;;12.60;99.90;14.50;96837.00;;;;5079189;28;20617;-66
2023/05/07 01:37:44;;;;;;;2.20;2.00;;;12.50;99.90;14.40;96835.00;;;;5090302;28;20734;-66
2023/05/07 01:40:35;;;;;;;2.03;1.83;;;12.50;99.90;14.40;96844.00;;;;5093056;28;20263;-66
2023/05/07 01:43:23;;;;;;;2.73;1.90;;;12.50;99.90;14.40;96850.00;;;;5094631;28;20205;-67
2023/05/07 01:46:13;;;;;;;2.63;1.93;;;12.40;99.90;14.30;96849.00;;;;5087475;28;20234;-66
2023/05/07 01:49:02;;;;;;;2.13;1.67;;;12.40;99.90;14.30;96842.00;;;;5093655;28;20349;-66
2023/05/07 01:51:51;;;;;;;1.97;1.70;;;12.30;99.90;14.30;96845.00;;;;5087404;28;20256;-66
2023/05/07 01:54:40;;;;;;;1.60;1.50;;;12.30;99.90;14.10;96844.00;;;;5092211;28;20215;-66
2023/05/07 01:57:30;;;;;;;2.40;1.73;;;12.30;99.90;14.10;96842.00;;;;5090023;28;20719;-66
2023/05/07 02:00:20;;;;;;;1.20;1.10;;;12.20;99.90;14.30;96835.00;;;;5088543;28;20704;-66
2023/05/07 02:03:08;;;;;;;1.33;1.23;;;12.20;99.90;14.20;96832.00;;;;5093148;28;20253;-67
2023/05/07 02:05:57;;;;;;;2.50;1.40;;;12.20;99.90;14.10;96843.00;;;;5092491;28;20704;-66
2023/05/07 02:08:46;;;;;;;1.97;1.40;;;12.20;99.90;13.60;96829.00;;;;5086003;28;20649;-66
2023/05/07 02:11:34;;;;;;;3.33;1.77;;;12.10;99.90;13.90;96834.00;;;;5090880;28;20544;-66
2023/05/07 02:14:25;;;;;;;2.30;2.10;;;12.00;99.90;13.90;96826.00;;;;5093158;28;20692;-66
2023/05/07 02:17:14;;;;;;;2.40;2.20;;;12.00;99.90;13.90;96827.00;;;;5089507;28;20261;-66
2023/05/07 02:20:03;;;;;;;1.93;1.47;;;11.90;99.90;13.70;96830.00;;;;5082781;28;20244;-66
2023/05/07 02:22:52;;;;;;;1.73;1.63;;;11.90;99.90;13.60;96831.00;;;;5081824;28;20211;-66
2023/05/07 02:25:41;;;;;;;1.60;1.40;;;11.80;99.90;13.70;96846.00;;;;5081856;28;20203;-66
2023/05/07 02:28:29;;;;;;;1.47;1.30;;;11.70;99.90;13.60;96842.00;;;;5084149;28;20229;-66
2023/05/07 02:31:19;;;;;;;2.50;1.30;;;11.70;99.90;13.60;96849.00;;;;5084150;28;20203;-66
2023/05/07 02:34:08;;;;;;;3.17;1.87;;;11.60;99.90;13.50;96843.00;;;;5093757;28;20199;-67
2023/05/07 02:36:57;;;;;;;2.00;1.70;;;11.60;99.90;13.60;96840.00;;;;5083364;28;20246;-67
2023/05/07 02:39:45;;;;;;;3.77;1.63;;;11.60;99.90;13.40;96837.00;;;;5086151;28;20195;-66
2023/05/07 02:42:34;;;;;;;3.97;1.70;;;11.60;99.90;13.60;96838.00;;;;5088523;28;20230;-66
2023/05/07 02:45:23;;;;;;;2.93;1.33;;;11.60;99.90;13.60;96836.00;;;;5088719;28;20256;-66
2023/05/07 02:48:13;;;;;;;2.57;1.60;;;11.70;99.90;13.70;96831.00;;;;5099218;28;20218;-66
2023/05/07 02:51:02;;;;;;;1.57;1.47;;;11.60;99.90;13.40;96828.00;;;;5092991;28;20313;-66
2023/05/07 02:53:51;;;;;;;1.70;1.60;;;11.60;99.90;13.50;96826.00;;;;5093362;28;20199;-66
2023/05/07 02:56:39;;;;;;;2.00;1.80;;;11.60;99.90;13.50;96825.00;;;;5086810;28;20658;-66
2023/05/07 02:59:28;;;;;;;2.20;1.80;;;11.60;99.90;13.40;96824.00;;;;5085680;28;20310;-66
2023/05/07 03:02:17;;;;;;;1.70;1.60;;;11.50;99.90;13.40;96826.00;;;;5080606;28;20621;-66
2023/05/07 03:05:08;;;;;;;2.90;2.30;;;11.50;99.90;13.40;96829.00;;;;5088665;28;20264;-66
2023/05/07 03:07:56;;;;;;;4.00;1.87;;;11.50;99.90;13.20;96829.00;;;;5078583;28;20222;-66
2023/05/07 03:10:45;;;;;;;1.57;1.47;;;11.40;99.90;13.10;96834.00;;;;5077888;28;20199;-66
2023/05/07 03:13:34;;;;;;;2.60;2.03;;;11.40;99.90;13.20;96836.00;;;;5085399;28;20236;-66
2023/05/07 03:16:22;;;;;;;1.80;1.70;;;11.30;99.90;13.20;96835.00;;;;5081148;28;20223;-66
2023/05/07 03:19:11;;;;;;;1.73;1.47;;;11.30;99.90;13.20;96828.00;;;;5086357;28;20577;-66
2023/05/07 03:22:01;;;;;;;1.57;1.47;;;11.30;99.90;13.20;96831.00;;;;5089257;28;20212;-66
2023/05/07 03:24:50;;;;;;;2.43;1.57;;;11.30;99.90;12.90;96840.00;;;;5087366;28;20269;-66
2023/05/07 03:27:39;;;;;;;3.15;1.70;;;11.10;99.90;12.70;96834.00;;;;5093505;28;20928;-66
2023/05/07 03:30:27;;;;;;;2.27;1.47;;;11.10;99.90;12.90;96829.00;;;;5104467;28;20187;-66
2023/05/07 03:33:16;;;;;;;1.47;1.37;;;11.10;99.90;12.90;96836.00;;;;5104227;28;20234;-66
2023/05/07 03:36:05;;;;;;;1.13;1.13;;;11.00;99.90;12.60;96835.00;;;;5089316;28;20234;-66
2023/05/07 03:38:55;;;;;;;1.83;1.50;;;11.00;99.90;12.80;96841.00;;;;5081011;28;20208;-66
2023/05/07 03:41:44;;;;;;;3.37;1.80;;;11.00;99.90;12.90;96834.00;;;;5092997;28;20191;-66
2023/05/07 03:44:32;;;;;;;1.83;1.73;;;11.00;99.90;12.90;96827.00;;;;5090829;28;20230;-66
2023/05/07 03:47:21;;;;;;;1.40;1.30;;;11.00;99.90;12.70;96832.00;;;;5092646;28;20273;-66
2023/05/07 03:50:11;;;;;;;2.10;1.90;;;11.00;99.90;12.60;96828.00;;;;5099650;28;20319;-66
2023/05/07 03:52:59;;;;;;;1.63;1.53;;;10.90;99.90;12.90;96836.00;;;;5089239;28;20685;-66
2023/05/07 03:55:50;;;;;;;1.40;1.30;;;10.90;99.90;12.80;96836.00;;;;5095841;28;20845;-66
2023/05/07 03:58:38;;;;;;;3.60;1.57;;;10.90;99.90;12.90;96841.00;;;;5091444;28;20218;-66
2023/05/07 04:01:27;;;;;;;3.27;1.90;;;10.90;99.90;13.10;96842.00;;;;5078145;28;20277;-66
2023/05/07 04:04:16;;;;;;;1.70;1.40;;;11.00;99.90;12.90;96850.00;;;;5081063;28;20238;-66
2023/05/07 04:07:05;;;;;;;2.37;1.57;;;11.00;99.90;12.70;96850.00;;;;5079934;28;20223;-66
2023/05/07 04:09:54;;;;;;;1.73;1.63;;;11.00;99.90;12.60;96856.00;;;;5091539;28;20707;-66
2023/05/07 04:12:44;;;;;;;1.73;1.53;;;10.90;99.90;12.70;96856.00;;;;5077012;28;20787;-66
2023/05/07 04:15:33;;;;;;;1.20;1.10;;;10.90;99.90;12.80;96846.00;;;;5080167;28;20207;-66
2023/05/07 04:18:22;;;;;;;1.97;1.33;;;10.90;99.90;12.90;96847.00;;;;5096048;28;20200;-66
2023/05/07 04:21:16;;;;;;;2.77;2.40;;;11.00;99.90;12.60;96856.00;;;;5101718;28;20226;-66
2023/05/07 04:24:06;;;;;;;1.50;1.40;;;10.90;99.90;12.70;96855.00;;;;5092544;28;20207;-66
2023/05/07 04:26:54;;;;;;;1.20;1.10;;;10.90;99.90;12.50;96866.00;;;;5095351;28;20210;-66
2023/05/07 04:29:47;;;;;;;2.93;1.40;;;10.90;99.90;12.70;96860.00;;;;5106863;28;20219;-66
2023/05/07 04:32:36;;;;;;;1.40;1.30;;;10.90;99.90;12.80;96866.00;;;;5091562;28;20221;-66
2023/05/07 04:35:25;;;;;;;1.47;1.37;;;10.90;99.90;13.00;96869.00;;;;5088051;28;20199;-66
2023/05/07 04:38:13;;;;;;;3.00;1.77;;;11.00;99.90;13.10;96870.00;;;;5105708;28;20205;-66
2023/05/07 04:41:05;;;;;;;1.37;1.27;;;11.00;99.90;13.20;96863.00;;;;5093827;28;20207;-66
2023/05/07 04:43:54;;;;;;;1.40;1.30;;;11.10;99.90;13.30;96866.00;;;;5091919;28;20199;-66
2023/05/07 04:46:44;;;;;;;1.97;1.30;;;11.20;99.90;13.00;96854.00;;;;5090671;28;20623;-66
2023/05/07 04:49:33;;;;;;;1.50;1.40;;;11.20;99.90;13.50;96858.00;;;;5093551;28;20233;-66
2023/05/07 04:52:21;;;;;;;1.70;1.60;;;11.30;99.90;13.40;96860.00;;;;5093628;28;20265;-66
2023/05/07 04:55:10;;;;;;;1.20;1.10;;;11.40;99.90;13.20;96867.00;;;;5099739;28;20204;-66
2023/05/07 04:58:01;;;;;;;1.83;1.50;;;11.40;99.90;12.90;96869.00;;;;5087899;28;20766;-68
2023/05/07 05:00:50;;;;;;;1.87;1.77;;;11.40;99.90;12.90;96867.00;;;;5076950;28;20199;-66
2023/05/07 05:03:40;;;;;;;2.17;1.30;;;11.30;99.90;13.40;96871.00;;;;5083628;28;20196;-66
2023/05/07 05:06:30;;;;;;;1.80;1.70;;;11.40;99.90;13.40;96871.00;;;;5082134;28;20226;-66
2023/05/07 05:09:19;;;;;;;3.93;1.90;;;11.40;99.90;13.40;96870.00;;;;5086059;28;20320;-66
2023/05/07 05:12:08;;;;;;;8.57;5.03;;;11.50;99.90;13.40;96881.00;;;;5082940;28;20233;-66
2023/05/07 05:14:57;;;;;;;19.73;10.20;;;11.50;99.90;13.30;96887.00;;;;5086098;28;20199;-68
2023/05/07 05:17:46;;;;;;;19.87;10.57;;;11.50;99.90;13.60;96892.00;;;;5083001;28;20223;-67
2023/05/07 05:20:36;;;;;;;13.90;8.67;;;11.60;99.90;13.60;96895.00;;;;5082522;28;20203;-67
2023/05/07 05:23:25;;;;;;;10.53;7.50;;;11.60;99.90;14.10;96892.00;;;;5087382;28;20203;-67
2023/05/07 05:26:13;;;;;;;11.23;7.17;;;11.80;99.90;14.20;96894.00;;;;5081080;28;20230;-66
2023/05/07 05:29:02;;;;;;;9.47;6.57;;;11.90;99.90;13.90;96889.00;;;;5083225;28;20574;-68
2023/05/07 05:31:51;;;;;;;10.83;6.83;;;12.00;99.90;14.00;96902.00;;;;5084063;28;20359;-67
2023/05/07 05:34:39;;;;;;;8.87;5.90;;;12.00;99.90;14.20;96897.00;;;;5075996;28;20596;-66
2023/05/07 05:37:31;;;;;;;8.77;4.73;;;12.20;99.90;14.50;96903.00;;;;5084742;28;20211;-66
2023/05/07 05:40:20;;;;;;;6.63;4.47;;;12.30;99.90;14.70;96910.00;;;;5079407;28;20195;-66
2023/05/07 05:43:09;;;;;;;10.40;6.77;;;12.40;99.90;14.20;96910.00;;;;5086654;28;20207;-68
2023/05/07 05:45:58;;;;;;;5.53;4.03;;;12.50;99.90;13.90;96921.00;;;;5083939;28;20199;-69
2023/05/07 05:48:47;;;;;;;4.87;2.57;;;12.40;99.90;14.00;96914.00;;;;5081718;28;20188;-68
2023/05/07 05:51:36;;;;;;;3.87;3.27;;;12.40;99.90;14.50;96921.00;;;;5063831;28;20283;-66
2023/05/07 05:54:26;;;;;;;3.07;2.77;;;12.40;99.90;14.50;96919.00;;;;5064645;28;20342;-67
2023/05/07 05:57:14;;;;;;;3.87;2.03;;;12.60;99.90;14.40;96912.00;;;;5061130;28;20219;-67
2023/05/07 06:00:05;;;;;;;2.90;2.53;;;12.70;99.90;14.50;96911.00;;;;5067114;28;20207;-67
2023/05/07 06:02:53;;;;;;;3.20;2.90;;;12.70;99.90;14.80;96905.00;;;;5063535;28;20206;-66
2023/05/07 06:05:42;;;;;;;6.30;3.47;;;12.80;99.90;14.80;96903.00;;;;5064546;28;20982;-70
2023/05/07 06:08:31;;;;;;;6.37;4.40;;;12.90;99.90;15.20;96907.00;;;;5062240;28;20199;-67
2023/05/07 06:11:21;;;;;;;5.13;4.37;;;13.00;99.90;15.50;96902.00;;;;5066818;28;20199;-66
2023/05/07 06:14:10;;;;;;;5.40;4.60;;;13.20;99.90;15.90;96898.00;;;;5066771;28;20568;-67
2023/05/07 06:16:58;;;;;;;4.57;4.00;;;13.40;99.90;16.20;96898.00;;;;5065206;28;20292;-67
2023/05/07 06:19:47;;;;;;;4.23;3.83;;;13.70;99.90;15.90;96893.00;;;;5064857;28;20214;-68
2023/05/07 06:22:36;;;;;;;5.13;4.63;;;13.70;99.90;16.00;96896.00;;;;5064598;28;20207;-68
2023/05/07 06:25:25;;;;;;;5.47;4.43;;;13.90;99.90;16.30;96902.00;;;;5077710;28;20212;-66
2023/05/07 06:28:15;;;;;;;6.17;4.97;;;14.00;99.90;16.30;96891.00;;;;5093315;28;20673;-66
2023/05/07 06:31:14;;;;;;;5.80;4.00;;;14.20;99.90;16.50;96905.00;;;;5089090;28;20260;-66
2023/05/07 06:34:03;;;;;;;5.37;4.00;;;14.30;99.90;16.30;96899.00;;;;5087547;28;20213;-70
2023/05/07 06:36:51;;;;;;;5.00;4.50;;;14.40;99.90;16.60;96902.00;;;;5083193;28;20214;-67
2023/05/07 06:39:40;;;;;;;4.70;4.17;;;14.50;99.90;16.70;96906.00;;;;5095169;28;20208;-66
2023/05/07 06:42:29;;;;;;;4.77;4.37;;;14.60;99.90;17.10;96909.00;;;;5093438;28;20913;-66
2023/05/07 06:45:20;;;;;;;3.97;3.67;;;14.70;99.90;17.30;96912.00;;;;5075663;28;20817;-67
2023/05/07 06:48:08;;;;;;;4.93;4.50;;;14.90;99.90;17.60;96914.00;;;;5090905;28;20223;-67
2023/05/07 06:50:57;;;;;;;9.97;4.87;;;15.10;99.90;17.20;96915.00;;;;5071717;28;20231;-67
2023/05/07 06:53:46;;;;;;;4.57;4.17;;;15.20;99.90;17.50;96921.00;;;;5079589;28;20203;-67
2023/05/07 06:56:35;;;;;;;4.40;3.87;;;15.30;99.90;17.40;96917.00;;;;5075705;28;20742;-70
2023/05/07 06:59:25;;;;;;;5.37;4.37;;;15.10;99.90;17.50;96910.00;;;;5101309;28;20206;-70
2023/05/07 07:02:15;;;;;;;8.80;4.03;;;15.50;99.90;17.80;96918.00;;;;5099728;28;20248;-68
2023/05/07 07:05:06;;;;;;;4.60;3.47;;;15.60;99.90;18.00;96928.00;;;;5103587;28;20209;-67
2023/05/07 07:07:55;;;;;;;4.13;3.57;;;15.80;99.90;18.30;96923.00;;;;5084964;28;20607;-68
2023/05/07 07:10:43;;;;;;;3.80;3.50;;;15.90;99.90;19.00;96930.00;;;;5080271;28;20344;-69
2023/05/07 07:13:32;;;;;;;6.03;3.40;;;16.20;99.90;19.20;96933.00;;;;5088028;28;20828;-69
2023/05/07 07:16:21;;;;;;;4.13;3.60;;;16.40;99.90;19.50;96926.00;;;;5085518;28;20287;-69
2023/05/07 07:19:11;;;;;;;4.53;3.47;;;16.60;99.90;19.70;96933.00;;;;5088627;28;20218;-69
2023/05/07 07:22:00;;;;;;;3.17;2.87;;;16.80;99.90;19.90;96931.00;;;;5086455;28;20252;-68
2023/05/07 07:24:48;;;;;;;4.97;3.40;;;16.90;99.90;19.80;96933.00;;;;5089834;28;20191;-70
2023/05/07 07:27:37;;;;;;;4.07;3.07;;;17.10;99.90;20.00;96927.00;;;;5087546;28;20215;-71
2023/05/07 07:30:27;;;;;;;3.67;3.07;;;17.30;99.90;20.10;96924.00;;;;5090818;28;20305;-67
2023/05/07 07:33:15;;;;;;;3.13;2.83;;;17.40;99.90;20.60;96928.00;;;;5091339;28;20235;-68
2023/05/07 07:36:07;;;;;;;4.67;3.07;;;17.60;99.90;20.70;96926.00;;;;5089998;28;20259;-68
2023/05/07 07:38:56;;;;;;;3.57;2.90;;;17.80;99.90;20.80;96930.00;;;;5091883;28;21485;-68
2023/05/07 07:41:44;;;;;;;2.87;2.57;;;17.90;99.90;21.00;96932.00;;;;5084089;28;20199;-68
2023/05/07 07:44:33;;;;;;;3.73;3.03;;;18.10;99.90;21.20;96919.00;;;;5078055;28;20760;-67
2023/05/07 07:47:22;;;;;;;3.20;2.90;;;18.20;99.90;21.40;96927.00;;;;5087051;28;20311;-68
2023/05/07 07:50:11;;;;;;;2.33;2.13;;;18.40;99.90;21.50;96927.00;;;;5087162;28;20218;-67
2023/05/07 07:53:03;;;;;;;2.43;2.23;;;18.50;99.90;21.20;96925.00;;;;5093740;28;20215;-69
2023/05/07 07:55:52;;;;;;;2.87;2.17;;;18.60;99.90;21.60;96925.00;;;;5085231;28;20204;-71
2023/05/07 07:58:42;;;;;;;2.30;2.10;;;18.70;99.90;21.90;96930.00;;;;5083560;28;20214;-70
2023/05/07 08:01:31;;;;;;;2.33;2.13;;;18.90;99.90;21.60;96930.00;;;;5082897;28;20200;-69
2023/05/07 08:04:20;;;;;;;5.10;2.40;;;18.90;99.90;21.50;96926.00;;;;5085302;28;20620;-69
2023/05/07 08:07:09;;;;;;;2.30;2.10;;;18.90;99.90;21.80;96927.00;;;;5082593;28;20226;-69
2023/05/07 08:09:59;;;;;;;5.60;2.73;;;19.00;99.90;22.00;96923.00;;;;5083181;28;20199;-69
2023/05/07 08:12:48;;;;;;;2.97;2.13;;;19.10;99.90;21.70;96926.00;;;;5091722;28;20192;-69
2023/05/07 08:15:37;;;;;;;2.73;2.47;;;19.20;99.90;22.20;96923.00;;;;5083480;28;20570;-69
2023/05/07 08:18:28;;;;;;;3.73;2.73;;;19.30;99.90;22.10;96929.00;;;;5080119;28;20187;-68
2023/05/07 08:21:17;;;;;;;4.23;2.90;;;19.40;99.90;22.10;96928.00;;;;5083179;28;20200;-72
2023/05/07 08:24:06;;;;;;;4.83;2.73;;;19.50;99.90;22.70;96932.00;;;;5083449;28;20720;-69
2023/05/07 08:26:56;;;;;;;2.57;2.37;;;19.70;99.90;22.80;96928.00;;;;5082982;28;20276;-67
2023/05/07 08:29:47;;;;;;;3.43;3.13;;;19.80;99.90;23.00;96920.00;;;;5077721;28;20215;-67
2023/05/07 08:32:35;;;;;;;4.13;3.10;;;20.00;99.90;23.40;96917.00;;;;5081651;28;20200;-67
2023/05/07 08:35:25;;;;;;;2.87;2.67;;;20.20;99.90;23.50;96917.00;;;;5082445;28;21362;-68
2023/05/07 08:38:14;;;;;;;4.57;2.83;;;20.40;99.90;23.90;96920.00;;;;5078569;28;20384;-67
2023/05/07 08:41:02;;;;;;;4.07;2.47;;;20.70;99.90;24.00;96912.00;;;;5077867;28;20219;-68
2023/05/07 08:43:53;;;;;;;4.20;2.57;;;21.50;99.90;23.60;96915.00;;;;5082918;28;20270;-70
2023/05/07 08:46:43;;;;;;;2.97;2.67;;;21.00;99.90;24.20;96925.00;;;;5093538;28;20254;-68
2023/05/07 08:49:32;;;;;;;2.40;2.20;;;21.20;99.90;24.50;96909.00;;;;5102491;28;20592;-68
2023/05/07 08:52:21;;;;;;;3.03;2.70;;;21.30;99.90;24.60;96911.00;;;;5100924;28;20296;-69
2023/05/07 08:55:11;;;;;;;2.87;2.67;;;21.50;99.90;24.70;96901.00;;;;5088571;28;20620;-68
2023/05/07 08:58:00;;;;;;;3.50;3.20;;;21.60;99.90;24.60;96923.00;;;;5089787;28;20225;-68
2023/05/07 09:00:50;;;;;;;3.53;3.23;;;21.70;99.90;23.90;96923.00;;;;5097193;28;20199;-68
2023/05/07 09:03:40;;;;;;;3.97;2.90;;;21.60;99.90;22.80;96913.00;;;;5082725;28;20218;-67
2023/05/07 09:06:29;;;;;;;5.83;2.60;;;21.30;99.90;23.90;96902.00;;;;5086215;28;20221;-68
2023/05/07 09:09:19;;;;;;;2.97;2.70;;;21.30;99.90;24.50;96903.00;;;;5085758;28;20199;-67
2023/05/07 09:12:08;;;;;;;4.13;2.80;;;21.40;99.90;24.90;96914.00;;;;5084753;28;20223;-68
2023/05/07 09:14:57;;;;;;;4.17;2.70;;;21.60;99.90;24.70;96911.00;;;;5081913;28;20690;-67
2023/05/07 09:17:47;;;;;;;2.97;2.50;;;21.70;99.90;24.70;96922.00;;;;5082990;28;20635;-68
2023/05/07 09:20:38;;;;;;;3.03;2.83;;;21.90;99.90;25.20;96915.00;;;;5076467;28;20192;-68
2023/05/07 09:23:26;;;;;;;2.80;2.60;;;22.00;99.90;25.60;96912.00;;;;5078847;28;20697;-68
2023/05/07 09:26:15;;;;;;;2.97;2.67;;;22.30;99.90;26.00;96911.00;;;;5082869;28;20306;-68
2023/05/07 09:29:04;;;;;;;2.83;2.63;;;22.60;99.90;25.60;96942.00;;;;5076901;28;20270;-68
2023/05/07 09:31:53;;;;;;;2.67;2.47;;;22.70;99.90;24.20;96931.00;;;;5077930;28;20219;-68
2023/05/07 09:34:43;;;;;;;3.07;2.77;;;22.40;99.90;23.60;96933.00;;;;5072737;28;20192;-70
2023/05/07 09:37:33;;;;;;;2.57;2.20;;;22.00;99.90;24.50;96909.00;;;;5081589;28;20215;-69
2023/05/07 09:40:23;;;;;;;2.67;2.47;;;21.90;99.90;24.60;96900.00;;;;5079714;28;20294;-69
2023/05/07 09:43:12;;;;;;;3.07;2.67;;;22.00;99.90;24.10;96907.00;;;;5099230;28;20269;-69
2023/05/07 09:46:08;;;;;;;3.23;2.67;;;22.10;99.90;24.70;96907.00;;;;5095447;28;20199;-68
2023/05/07 09:48:59;;;;;;;2.90;2.70;;;22.20;99.90;25.10;96939.00;;;;5095781;28;20199;-72
2023/05/07 09:51:53;;;;;;;3.10;2.50;;;22.20;99.90;25.20;96909.00;;;;5095660;28;20218;-72
2023/05/07 09:54:43;;;;;;;2.27;2.07;;;22.30;99.90;25.20;96935.00;;;;5102483;28;20195;-69
2023/05/07 09:57:33;;;;;;;3.13;2.37;;;22.40;99.90;24.00;96898.00;;;;5100458;28;20226;-71
2023/05/07 10:00:23;;;;;;;2.70;2.50;;;22.20;99.90;25.10;96905.00;;;;5100811;28;20226;-70
2023/05/07 10:03:14;;;;;;;4.60;2.63;;;22.30;99.90;25.80;96901.00;;;;5080563;28;20244;-68
2023/05/07 10:06:03;;;;;;;3.33;2.33;;;22.60;99.90;25.50;96927.00;;;;5097373;28;20206;-68
2023/05/07 10:08:54;;;;;;;2.73;2.30;;;22.60;99.90;24.90;96899.00;;;;5077562;28;20272;-69
2023/05/07 10:11:42;;;;;;;2.87;2.13;;;22.60;99.90;25.50;96903.00;;;;5080220;28;20223;-68
2023/05/07 10:14:31;;;;;;;3.97;2.47;;;22.70;99.90;25.00;96927.00;;;;5079842;28;20214;-69
2023/05/07 10:17:21;;;;;;;3.37;3.00;;;22.80;99.90;25.50;96899.00;;;;5081388;28;20213;-72
2023/05/07 10:20:10;;;;;;;2.77;2.53;;;22.80;99.90;25.10;96895.00;;;;5081678;28;20195;-70
2023/05/07 10:23:00;;;;;;;3.80;2.77;;;23.00;99.90;24.50;96885.00;;;;5083059;28;20282;-68
2023/05/07 10:25:50;;;;;;;6.07;2.60;;;22.80;99.90;24.10;96917.00;;;;5074265;28;20238;-70
2023/05/07 10:28:47;;;;;;;2.57;2.37;;;22.60;99.90;23.20;96883.00;;;;5092200;28;20194;-67
2023/05/07 10:31:55;;;;;;;2.97;2.53;;;22.30;99.90;24.30;96874.00;;;;5088884;28;20748;-72
2023/05/07 10:34:48;;;;;;;2.43;2.20;;;22.40;99.90;25.10;96866.00;;;;5086209;28;20199;-69
2023/05/07 10:37:37;;;;;;;3.63;2.23;;;22.60;99.90;25.90;96859.00;;;;5082621;28;20226;-70
2023/05/07 10:40:26;;;;;;;2.10;2.00;;;22.90;98.90;25.80;96873.00;;;;5086716;28;20207;-69
2023/05/07 10:43:16;;;;;;;3.53;2.57;;;23.10;99.60;26.90;96873.00;;;;5085945;28;20215;-68
2023/05/07 10:46:15;;;;;;;2.37;2.17;;;23.00;99.90;26.20;96867.00;;;;5079425;28;20224;-71
2023/05/07 10:49:12;;;;;;;2.40;2.20;;;23.80;99.20;24.00;96894.00;;;;5085694;28;20203;-68
2023/05/07 10:52:15;;;;;;;2.57;2.00;;;23.30;98.10;26.40;96862.00;;;;5085520;28;20294;-67
2023/05/07 10:55:25;;;;;;;4.93;1.97;;;23.50;98.20;27.50;96860.00;;;;5083624;28;20220;-68
2023/05/07 10:58:28;;;;;;;2.23;2.03;;;23.80;98.40;26.60;96847.00;;;;5084313;28;20348;-69
2023/05/07 11:01:52;;;;;;;4.47;2.27;;;24.10;97.40;28.00;96861.00;;;;5079792;28;20203;-69
2023/05/07 11:04:41;;;;;;;2.70;1.83;;;24.50;97.10;28.20;96845.00;;;;5082248;28;20199;-68
2023/05/07 11:07:31;;;;;;;3.67;2.27;;;24.70;95.10;28.20;96840.00;;;;5086191;28;20223;-67
2023/05/07 11:10:21;;;;;;;3.20;2.03;;;25.00;94.20;28.40;96880.00;;;;5086934;28;20223;-69
2023/05/07 11:13:10;;;;;;;2.33;2.17;;;25.30;94.00;27.60;96884.00;;;;5077466;28;20304;-71
2023/05/07 11:16:01;;;;;;;2.70;2.43;;;25.20;93.60;28.30;96880.00;;;;5079606;28;20200;-70
2023/05/07 11:18:51;;;;;;;1.70;1.60;;;25.20;93.40;26.50;96860.00;;;;5080889;28;20201;-70
2023/05/07 11:21:42;;;;;;;2.20;2.00;;;24.90;92.20;26.80;96890.00;;;;5087047;28;20196;-67
2023/05/07 11:24:40;;;;;;;3.13;2.70;;;24.70;92.70;27.50;96879.00;;;;5089150;28;20206;-67
2023/05/07 11:27:29;;;;;;;2.03;1.87;;;24.60;93.40;27.20;96888.00;;;;5082624;28;20224;-67
2023/05/07 11:30:19;;;;;;;2.30;2.10;;;24.50;93.50;27.10;96874.00;;;;5078508;28;20205;-67
2023/05/07 11:33:10;;;;;;;2.00;1.80;;;24.40;93.90;27.00;96873.00;;;;5077698;28;20319;-71
2023/05/07 11:36:00;;;;;;;2.03;1.93;;;24.50;93.70;26.50;96879.00;;;;5078844;28;20209;-69
2023/05/07 11:38:49;;;;;;;2.00;1.90;;;24.30;93.80;25.70;96879.00;;;;5085946;28;20219;-67
2023/05/07 11:41:38;;;;;;;2.07;1.83;;;24.00;93.00;25.50;96876.00;;;;5083499;28;20200;-67
2023/05/07 11:44:43;;;;;;;3.07;2.37;;;23.70;93.50;24.70;96879.00;;;;5081325;28;20192;-68
2023/05/07 11:47:32;;;;;;;2.03;1.93;;;23.40;93.20;25.00;96857.00;;;;5089341;28;20228;-64
2023/05/07 11:50:22;;;;;;;2.20;1.87;;;23.20;93.60;25.60;96877.00;;;;5091123;28;20219;-68
2023/05/07 11:53:11;;;;;;;2.30;2.10;;;23.10;93.80;25.60;96878.00;;;;5085705;28;20238;-66
2023/05/07 11:56:01;;;;;;;3.03;2.10;;;23.10;94.30;25.50;96877.00;;;;5083297;28;20207;-68
2023/05/07 11:58:51;;;;;;;2.57;2.37;;;23.10;94.80;25.10;96881.00;;;;5085878;28;20281;-70
2023/05/07 12:01:40;;;;;;;2.40;2.10;;;22.90;93.90;25.40;96890.00;;;;5080968;28;20207;-68
2023/05/07 12:04:31;;;;;;;3.07;1.87;;;22.90;95.60;24.70;96889.00;;;;5080443;28;20206;-69
2023/05/07 12:07:21;;;;;;;4.97;2.00;;;22.80;95.00;24.50;96894.00;;;;5083687;28;20223;-68
2023/05/07 12:10:13;;;;;;;2.50;2.30;;;22.50;96.50;24.60;96894.00;;;;5079912;28;21034;-67
2023/05/07 12:13:02;;;;;;;3.27;2.70;;;22.30;97.10;24.50;96898.00;;;;5077845;28;20231;-67
2023/05/07 12:15:52;;;;;;;2.60;2.40;;;22.20;98.20;24.20;96907.00;;;;5081046;28;20207;-67
2023/05/07 12:18:41;;;;;;;1.80;1.70;;;22.00;98.30;23.80;96906.00;;;;5086383;28;20206;-67
2023/05/07 12:21:31;;;;;;;2.67;2.40;;;21.80;98.50;23.70;96911.00;;;;5082993;28;20706;-67
2023/05/07 12:24:21;;;;;;;4.10;2.03;;;21.60;99.90;23.10;96911.00;;;;5088708;28;20816;-72
2023/05/07 12:27:10;;;;;;;3.10;2.17;;;21.40;99.90;22.30;96923.00;;;;5086628;28;20345;-69
2023/05/07 12:29:59;;;;;;;3.70;2.40;;;21.00;99.90;21.90;96927.00;;;;5089475;28;20201;-69
2023/05/07 12:32:53;;;;;;;6.13;2.20;;;20.50;99.90;20.10;96928.00;;;;5083127;28;20219;-76
2023/05/07 12:35:44;;;;;;;2.73;2.53;;;19.90;99.90;19.40;96927.00;;;;5093949;28;20210;-66